Kiruna Airport

ESNQ · 北博滕, 瑞典

罗盘
风向 的 风向 050° Kiruna Airport 3/21
风: 5 kt, 2 beaufort

5 kt

1 kt
改变
0 ft 2.000 4.000 6.000 8.000 10.000
Cloud Cloud Cloud Cloud Cloud Cloud Cloud Cloud
OVC 9.000
METAR ESNQ 161550Z AUTO 05005KT 9999 OVC090/// 17/14 Q1015

METAR Kiruna Airport - ESNQ/KRN

Kiruna Airport是,瑞典中的中型机场。 该机场位于纬度67,82200和经度20,33680。 该机场有一条跑道: 3/21. 本场的ICAO机场代码为ESNQ。 该机场的IATA代码为KRN。 机场在Sweden FIR中。

该航空气象观测是针对Kiruna Airport在2024年7月16日 17:50, 当地时间进行的。

机场观察

风向为050°,速度为5 kt。

可见度为10 km 或者更多。

有乌云密布在9.000 ft的高度。 破损或更高的上限为9.000 ft。

温度和风寒是17 °C。 露点为14 °C,相对湿度为83%。 海平面上的气压为1015 hPa (QNH)。

白天

今天,太阳从01:07升起,在00:22降落。 这适用于Kiruna Airport,世界夏令时可能有所不同。 当地时间与世界标准时间之间的时差为+2 小时。 夏令时目前正在进行中。

公司介绍

我们没有关于这个机场的公司信息。

体会

到Vliegles.nl去找飞行课程,跳伞和其他飞行体验。 浏览页面,了解Kiruna Airport附近所有可用的活动。 你也可以使用搜索功能来寻找你所在地附近的特定飞行课程、跳伞或其他飞行体验。

跑道

Id 标题 侧风 逆风 侧风 %
3/21 033°-213° 1 kt 5 kt 29 %

逆风成分最大的方向会被突出显示,并用于横风计算。 这并不一定意味着这个方向在使用。

乌云

9.000 ft OVC 乌云密布

温度 & 天气

温度 17 °C
露点 14 °C
相对湿度 83%
Kp-index 1 (0-9)

白天

日出
01:07
中午
12:44
日落
00:22 (6:08)

小工具

你想在你的网站上有一个关于Kiruna Airport的当前航空天气(METAR)的小部件吗?

显示HTML代码
报告变更